Terminal Aerodrome Forecast
Issued by NWS Charleston, WV

Current Version | Previous Version | Text Only | Print | Product List | Glossary Off
Versions: 1 2 3 4 5 6 7 8 9 10 11 12 13 14 15 16 17 18 19 20 21 22 23

000
FTUS41 KRLX 161421 AAA
TAFEKN
TAF AMD
KEKN 161421Z 1614/1712 29012G23KT 6SM -SHRA SCT014 OVC070
      TEMPO 1615/1619 2SM SHRA BR BKN009
     FM161900 30014G27KT 3SM -SHRA OVC010
     FM162200 30012G21KT P6SM OVC013
     FM170000 31010G17KT P6SM SCT021
     FM170500 31003KT 3SM BR FEW250=

USA.gov is the U.S. government's official web portal to all federal, state and local government web resources and services.